METAR ET TAF INFORMATION
METAR FOR LECH
ADDS - METARS form results

(1951 UTC 10 August 2022)
Data provider http://aviationweather.gov/metar/data/
 
METAR text: LECH 101930Z AUTO 16003KT 130V190 CAVOK 28/15 Q1016
Conditions at: LECH (CASTELLON , ES) observed 1930 UTC 10 August 2022
Temperature: 28.0°C (82°F)
Dewpoint: 15.0°C (59°F) [RH = 45%]
Pressure (altimeter): 30.00 inches Hg (1016.0 mb)
Winds: from the SSE (160 degrees) at 3 MPH (3 knots; 1.5 m/s)
Visibility: 6 or more miles (10+ km)
Ceiling: ceiling and visibility are OK
Clouds: unknown
Weather: no significant weather observed at this time

METAR text: LECH 101900Z AUTO 21005KT CAVOK 28/15 Q1016
Conditions at: LECH (CASTELLON , ES) observed 1900 UTC 10 August 2022
Temperature: 28.0°C (82°F)
Dewpoint: 15.0°C (59°F) [RH = 45%]
Pressure (altimeter): 30.00 inches Hg (1016.0 mb)
Winds: from the SSW (210 degrees) at 6 MPH (5 knots; 2.6 m/s)
Visibility: 6 or more miles (10+ km)
Ceiling: ceiling and visibility are OK
Clouds: unknown
Weather: no significant weather observed at this time

 AÉROPORT DE AÉROPORT

 INFORMATIONS DE PISTE

 AÉROPORT FRÉQUENCES

 SIDA DE NAVIGATION



Powered by Virtual Airlines Manager [v2.6.2]